sensor_id;sensor_type;location;lat;lon;timestamp;P1;P2;P0
76045;PMS7003;64741;41.730;44.788;2022-11-24T00:04:33;23;19.2;13.6
76045;PMS7003;64741;41.730;44.788;2022-11-24T00:09:44;21.6;19.8;14
76045;PMS7003;64741;41.730;44.788;2022-11-24T00:14:41;20.8;19.2;14
76045;PMS7003;64741;41.730;44.788;2022-11-24T00:19:43;20.8;18;13
76045;PMS7003;64741;41.730;44.788;2022-11-24T00:24:39;21.8;16.8;12.6
76045;PMS7003;64741;41.730;44.788;2022-11-24T00:29:45;19.6;17.4;12.6
76045;PMS7003;64741;41.730;44.788;2022-11-24T00:34:43;23.2;18.6;13.6
76045;PMS7003;64741;41.730;44.788;2022-11-24T00:39:45;18.4;16.4;12
76045;PMS7003;64741;41.730;44.788;2022-11-24T00:44:43;16.4;15.2;11.4
76045;PMS7003;64741;41.730;44.788;2022-11-24T00:49:43;17.6;16.2;11.4
76045;PMS7003;64741;41.730;44.788;2022-11-24T00:54:43;18.4;16.4;11.4
76045;PMS7003;64741;41.730;44.788;2022-11-24T00:59:41;17.4;15.4;11.2
76045;PMS7003;64741;41.730;44.788;2022-11-24T01:04:43;16;14.4;11.4
76045;PMS7003;64741;41.730;44.788;2022-11-24T01:09:39;16;14;10
76045;PMS7003;64741;41.730;44.788;2022-11-24T01:14:43;16;15;10.6
76045;PMS7003;64741;41.730;44.788;2022-11-24T01:19:43;17.4;15.2;11.2
76045;PMS7003;64741;41.730;44.788;2022-11-24T01:24:41;19.8;15.4;10.4
76045;PMS7003;64741;41.730;44.788;2022-11-24T01:29:45;16.6;14.6;10.8
76045;PMS7003;64741;41.730;44.788;2022-11-24T01:34:37;18;13.6;10.2
76045;PMS7003;64741;41.730;44.788;2022-11-24T01:39:43;15.4;14;9.8
76045;PMS7003;64741;41.730;44.788;2022-11-24T01:44:47;15.2;12.8;9.2
76045;PMS7003;64741;41.730;44.788;2022-11-24T01:49:42;16.4;14;9.6
76045;PMS7003;64741;41.730;44.788;2022-11-24T01:54:47;15;13.2;10.2
76045;PMS7003;64741;41.730;44.788;2022-11-24T01:59:47;15.6;12.8;9.6
76045;PMS7003;64741;41.730;44.788;2022-11-24T02:04:49;14.2;12.6;9.6
76045;PMS7003;64741;41.730;44.788;2022-11-24T02:09:44;14.4;13;9.6
76045;PMS7003;64741;41.730;44.788;2022-11-24T02:14:33;15;13;9
76045;PMS7003;64741;41.730;44.788;2022-11-24T02:19:47;13.8;11.8;9
76045;PMS7003;64741;41.730;44.788;2022-11-24T02:24:43;15.2;12.2;8.6
76045;PMS7003;64741;41.730;44.788;2022-11-24T02:29:49;14.4;12;8.4
76045;PMS7003;64741;41.730;44.788;2022-11-24T02:34:47;12.8;11;7.8
76045;PMS7003;64741;41.730;44.788;2022-11-24T02:39:45;13.4;11.8;8.4
76045;PMS7003;64741;41.730;44.788;2022-11-24T02:44:43;15;12;8.8
76045;PMS7003;64741;41.730;44.788;2022-11-24T02:49:43;15;12;8.4
76045;PMS7003;64741;41.730;44.788;2022-11-24T02:54:43;14;11.4;8.4
76045;PMS7003;64741;41.730;44.788;2022-11-24T02:59:47;13.4;11.6;9.4
76045;PMS7003;64741;41.730;44.788;2022-11-24T03:04:43;13.2;10.8;8
76045;PMS7003;64741;41.730;44.788;2022-11-24T03:09:47;13.2;10.4;7.8
76045;PMS7003;64741;41.730;44.788;2022-11-24T03:14:43;11.8;10.6;7.6
76045;PMS7003;64741;41.730;44.788;2022-11-24T03:19:35;13.8;11.2;8.2
76045;PMS7003;64741;41.730;44.788;2022-11-24T03:24:43;12.8;11.2;8.4
76045;PMS7003;64741;41.730;44.788;2022-11-24T03:29:41;12.5;11.5;8.5
76045;PMS7003;64741;41.730;44.788;2022-11-24T03:34:43;12.6;10.6;7.2
76045;PMS7003;64741;41.730;44.788;2022-11-24T03:39:43;13.4;11.4;8
76045;PMS7003;64741;41.730;44.788;2022-11-24T03:44:47;12.2;10.4;8
76045;PMS7003;64741;41.730;44.788;2022-11-24T03:49:47;11.2;9.8;6.2
76045;PMS7003;64741;41.730;44.788;2022-11-24T03:54:43;11.2;10.2;7.8
76045;PMS7003;64741;41.730;44.788;2022-11-24T03:59:29;11;9.6;7
76045;PMS7003;64741;41.730;44.788;2022-11-24T04:04:43;12;10;7.2
76045;PMS7003;64741;41.730;44.788;2022-11-24T04:09:45;11.2;9.6;7.4
76045;PMS7003;64741;41.730;44.788;2022-11-24T04:14:51;11.2;9.6;7.4
76045;PMS7003;64741;41.730;44.788;2022-11-24T04:19:43;11.6;9.4;6.8
76045;PMS7003;64741;41.730;44.788;2022-11-24T04:24:43;11.8;9.8;7.4
76045;PMS7003;64741;41.730;44.788;2022-11-24T04:29:45;11;8.8;6.8
76045;PMS7003;64741;41.730;44.788;2022-11-24T04:34:45;11.4;10.4;7.8
76045;PMS7003;64741;41.730;44.788;2022-11-24T04:39:45;10.4;9.4;6.6
76045;PMS7003;64741;41.730;44.788;2022-11-24T04:44:43;12.4;11.6;8.2
76045;PMS7003;64741;41.730;44.788;2022-11-24T04:49:43;11.8;10.2;7.2
76045;PMS7003;64741;41.730;44.788;2022-11-24T04:54:45;12.4;11.2;8
76045;PMS7003;64741;41.730;44.788;2022-11-24T04:59:41;13.4;11.8;8
76045;PMS7003;64741;41.730;44.788;2022-11-24T05:04:49;12.2;10.2;7.6
76045;PMS7003;64741;41.730;44.788;2022-11-24T05:09:49;12.4;10.2;7.8
76045;PMS7003;64741;41.730;44.788;2022-11-24T05:14:45;13;11;8.4
76045;PMS7003;64741;41.730;44.788;2022-11-24T05:19:47;12;10.6;8
76045;PMS7003;64741;41.730;44.788;2022-11-24T05:24:45;12.6;11.2;8
76045;PMS7003;64741;41.730;44.788;2022-11-24T05:29:45;14.6;12;8.4
76045;PMS7003;64741;41.730;44.788;2022-11-24T05:34:43;15;13.4;9.2
76045;PMS7003;64741;41.730;44.788;2022-11-24T05:39:45;15;11.8;8.6
76045;PMS7003;64741;41.730;44.788;2022-11-24T05:44:45;13.2;10.4;7.4
76045;PMS7003;64741;41.730;44.788;2022-11-24T05:49:45;15.4;11.2;8.2
76045;PMS7003;64741;41.730;44.788;2022-11-24T05:54:45;14.4;12.8;9
76045;PMS7003;64741;41.730;44.788;2022-11-24T05:59:43;13.6;10.4;8
76045;PMS7003;64741;41.730;44.788;2022-11-24T06:04:49;12.8;10.8;7.8
76045;PMS7003;64741;41.730;44.788;2022-11-24T06:09:49;13.4;11.2;8.2
76045;PMS7003;64741;41.730;44.788;2022-11-24T06:14:49;12.6;11.4;8
76045;PMS7003;64741;41.730;44.788;2022-11-24T06:19:49;13.2;9.8;6.6
76045;PMS7003;64741;41.730;44.788;2022-11-24T06:24:49;12;10;7.6
76045;PMS7003;64741;41.730;44.788;2022-11-24T06:29:47;14.2;12;8.4
76045;PMS7003;64741;41.730;44.788;2022-11-24T06:34:45;13.6;11.4;8.4
76045;PMS7003;64741;41.730;44.788;2022-11-24T06:39:47;13.4;11.2;8.4
76045;PMS7003;64741;41.730;44.788;2022-11-24T06:44:49;13;11.8;8.8
76045;PMS7003;64741;41.730;44.788;2022-11-24T06:49:41;13.6;10.8;7.6
76045;PMS7003;64741;41.730;44.788;2022-11-24T06:54:41;13.6;11.6;8.6
76045;PMS7003;64741;41.730;44.788;2022-11-24T06:59:47;12.6;11.2;8
76045;PMS7003;64741;41.730;44.788;2022-11-24T07:04:47;11.8;10.4;6.8
76045;PMS7003;64741;41.730;44.788;2022-11-24T07:09:47;14.4;11;7.8
76045;PMS7003;64741;41.730;44.788;2022-11-24T07:14:41;13.6;11.4;8.8
76045;PMS7003;64741;41.730;44.788;2022-11-24T07:19:47;13;12;8.6
76045;PMS7003;64741;41.730;44.788;2022-11-24T07:24:47;18;14.8;10.2
76045;PMS7003;64741;41.730;44.788;2022-11-24T07:29:47;11.8;10.8;8.2
76045;PMS7003;64741;41.730;44.788;2022-11-24T07:34:49;13.8;12.6;9.8
76045;PMS7003;64741;41.730;44.788;2022-11-24T07:39:47;14.6;13;9.6
76045;PMS7003;64741;41.730;44.788;2022-11-24T07:44:31;15.8;13.2;9.8
76045;PMS7003;64741;41.730;44.788;2022-11-24T07:49:47;14;11.8;8.6
76045;PMS7003;64741;41.730;44.788;2022-11-24T07:54:31;18.6;15.8;11.2
76045;PMS7003;64741;41.730;44.788;2022-11-24T07:59:45;16.2;14.6;10.2
76045;PMS7003;64741;41.730;44.788;2022-11-24T08:04:35;19;16.8;12.2
76045;PMS7003;64741;41.730;44.788;2022-11-24T08:09:41;19.4;17.2;12.2
76045;PMS7003;64741;41.730;44.788;2022-11-24T08:14:43;23.6;19.6;14.2
76045;PMS7003;64741;41.730;44.788;2022-11-24T08:19:43;23.2;20.6;14.8
76045;PMS7003;64741;41.730;44.788;2022-11-24T08:24:45;23.8;20.6;14.8
76045;PMS7003;64741;41.730;44.788;2022-11-24T08:29:39;20.4;18.2;12.8
76045;PMS7003;64741;41.730;44.788;2022-11-24T08:34:45;19.4;15.8;11.6
76045;PMS7003;64741;41.730;44.788;2022-11-24T08:39:47;17.5;14.8;10
76045;PMS7003;64741;41.730;44.788;2022-11-24T08:44:31;16;13.6;10.2
76045;PMS7003;64741;41.730;44.788;2022-11-24T08:49:45;14.8;12;8.6
76045;PMS7003;64741;41.730;44.788;2022-11-24T08:54:45;15.2;13;9
76045;PMS7003;64741;41.730;44.788;2022-11-24T08:59:47;13.4;11.4;8
76045;PMS7003;64741;41.730;44.788;2022-11-24T09:04:43;11.6;9.4;6.4
76045;PMS7003;64741;41.730;44.788;2022-11-24T09:09:43;12.4;11;8.2
76045;PMS7003;64741;41.730;44.788;2022-11-24T09:14:47;10.8;9.8;6.8
76045;PMS7003;64741;41.730;44.788;2022-11-24T09:19:47;11.8;10.2;6.8
76045;PMS7003;64741;41.730;44.788;2022-11-24T09:24:47;12.4;10;7.2
76045;PMS7003;64741;41.730;44.788;2022-11-24T09:29:45;11.8;10.6;7.4
76045;PMS7003;64741;41.730;44.788;2022-11-24T09:34:43;19.4;16.6;11.2
76045;PMS7003;64741;41.730;44.788;2022-11-24T09:39:47;54.2;42.2;28
76045;PMS7003;64741;41.730;44.788;2022-11-24T09:44:47;60.4;46;30.4
76045;PMS7003;64741;41.730;44.788;2022-11-24T09:49:41;60.2;46.4;30.8
76045;PMS7003;64741;41.730;44.788;2022-11-24T09:54:46;66;51;32.4
76045;PMS7003;64741;41.730;44.788;2022-11-24T09:59:43;68.4;51.6;33.8
76045;PMS7003;64741;41.730;44.788;2022-11-24T10:04:47;74.2;61;40
76045;PMS7003;64741;41.730;44.788;2022-11-24T10:09:47;75.4;63.2;41.2
76045;PMS7003;64741;41.730;44.788;2022-11-24T10:14:54;72.6;58.2;38.6
76045;PMS7003;64741;41.730;44.788;2022-11-24T10:19:43;69.4;53.6;35
76045;PMS7003;64741;41.730;44.788;2022-11-24T10:24:45;67;51.6;33.8
76045;PMS7003;64741;41.730;44.788;2022-11-24T10:29:37;64.6;49.2;31.8
76045;PMS7003;64741;41.730;44.788;2022-11-24T10:34:47;62.4;48.2;31.4
76045;PMS7003;64741;41.730;44.788;2022-11-24T10:39:48;59.4;46.2;30.6
76045;PMS7003;64741;41.730;44.788;2022-11-24T10:44:45;59.6;46.4;30.4
76045;PMS7003;64741;41.730;44.788;2022-11-24T10:49:46;64.4;48.4;31.8
76045;PMS7003;64741;41.730;44.788;2022-11-24T10:54:53;61.8;48;32
76045;PMS7003;64741;41.730;44.788;2022-11-24T10:59:43;60;46.2;31
76045;PMS7003;64741;41.730;44.788;2022-11-24T11:04:33;60.8;46.8;30.4
76045;PMS7003;64741;41.730;44.788;2022-11-24T11:09:47;58.6;46;30.8
76045;PMS7003;64741;41.730;44.788;2022-11-24T11:14:39;60.8;47;30.4
76045;PMS7003;64741;41.730;44.788;2022-11-24T11:19:43;60;45.6;30
76045;PMS7003;64741;41.730;44.788;2022-11-24T11:24:43;57.4;45.2;29.6
76045;PMS7003;64741;41.730;44.788;2022-11-24T11:29:45;57.6;44.4;29.6
76045;PMS7003;64741;41.730;44.788;2022-11-24T11:34:41;55.6;43.4;28.8
76045;PMS7003;64741;41.730;44.788;2022-11-24T11:39:41;57.2;44.2;28.8
76045;PMS7003;64741;41.730;44.788;2022-11-24T11:44:46;56.4;43.8;29.2
76045;PMS7003;64741;41.730;44.788;2022-11-24T11:49:43;55.2;43;29
76045;PMS7003;64741;41.730;44.788;2022-11-24T11:54:39;55;43.4;28.8
76045;PMS7003;64741;41.730;44.788;2022-11-24T11:59:50;57.6;44.2;29.2
76045;PMS7003;64741;41.730;44.788;2022-11-24T12:04:48;58.6;45;29.4
76045;PMS7003;64741;41.730;44.788;2022-11-24T12:09:48;58.6;46;30.4
76045;PMS7003;64741;41.730;44.788;2022-11-24T12:14:37;61.6;46.4;31
76045;PMS7003;64741;41.730;44.788;2022-11-24T12:19:46;62.2;46.2;31
76045;PMS7003;64741;41.730;44.788;2022-11-24T12:24:49;59.6;46.8;31.6
76045;PMS7003;64741;41.730;44.788;2022-11-24T12:29:48;60.8;47;31
76045;PMS7003;64741;41.730;44.788;2022-11-24T12:34:48;58.8;45.4;30
76045;PMS7003;64741;41.730;44.788;2022-11-24T12:39:49;60.2;46;31.2
76045;PMS7003;64741;41.730;44.788;2022-11-24T12:45:21;60;46.8;30.8
76045;PMS7003;64741;41.730;44.788;2022-11-24T12:49:46;59.6;45.6;30.2
76045;PMS7003;64741;41.730;44.788;2022-11-24T12:54:43;57.6;44.8;30.2
76045;PMS7003;64741;41.730;44.788;2022-11-24T12:59:46;58;44.4;29.6
76045;PMS7003;64741;41.730;44.788;2022-11-24T13:04:44;55.2;44;29.2
76045;PMS7003;64741;41.730;44.788;2022-11-24T13:10:24;52.6;41.4;27.6
76045;PMS7003;64741;41.730;44.788;2022-11-24T13:14:47;51;41.2;26.6
76045;PMS7003;64741;41.730;44.788;2022-11-24T13:19:43;51.6;41;26.8
76045;PMS7003;64741;41.730;44.788;2022-11-24T13:24:35;62.4;50.6;32
76045;PMS7003;64741;41.730;44.788;2022-11-24T13:29:45;118.2;101;64.2
76045;PMS7003;64741;41.730;44.788;2022-11-24T13:34:53;119.8;105;66.4
76045;PMS7003;64741;41.730;44.788;2022-11-24T13:39:48;108.4;94.6;60.8
76045;PMS7003;64741;41.730;44.788;2022-11-24T13:44:47;102.2;89.6;57.6
76045;PMS7003;64741;41.730;44.788;2022-11-24T13:49:47;105.8;89.4;57.2
76045;PMS7003;64741;41.730;44.788;2022-11-24T13:54:47;95.3;82.5;53
76045;PMS7003;64741;41.730;44.788;2022-11-24T13:59:48;93;77;49.8
76045;PMS7003;64741;41.730;44.788;2022-11-24T14:04:49;85.4;73;47.8
76045;PMS7003;64741;41.730;44.788;2022-11-24T14:09:46;84.8;73;46.6
76045;PMS7003;64741;41.730;44.788;2022-11-24T14:14:47;79.6;68.2;44.2
76045;PMS7003;64741;41.730;44.788;2022-11-24T14:19:45;76.4;65;42.2
76045;PMS7003;64741;41.730;44.788;2022-11-24T14:24:45;72;58.6;38.4
76045;PMS7003;64741;41.730;44.788;2022-11-24T14:29:50;72.4;58.8;37.6
76045;PMS7003;64741;41.730;44.788;2022-11-24T14:34:47;74.2;60.8;40
76045;PMS7003;64741;41.730;44.788;2022-11-24T14:39:47;78;66.6;44.8
76045;PMS7003;64741;41.730;44.788;2022-11-24T14:44:46;77;66;44.2
76045;PMS7003;64741;41.730;44.788;2022-11-24T14:49:45;76.8;65.4;43.8
76045;PMS7003;64741;41.730;44.788;2022-11-24T14:54:50;74.6;62.2;40.6
76045;PMS7003;64741;41.730;44.788;2022-11-24T15:00:01;74;60.2;39.2
76045;PMS7003;64741;41.730;44.788;2022-11-24T15:04:54;72.8;59.2;39.8
76045;PMS7003;64741;41.730;44.788;2022-11-24T15:09:49;70;55.4;36.6
76045;PMS7003;64741;41.730;44.788;2022-11-24T15:14:47;67.8;51.6;34.2
76045;PMS7003;64741;41.730;44.788;2022-11-24T15:19:48;67.8;51.2;33.6
76045;PMS7003;64741;41.730;44.788;2022-11-24T15:24:47;63;49.4;32.8
76045;PMS7003;64741;41.730;44.788;2022-11-24T15:29:45;63.4;48.6;32.2
76045;PMS7003;64741;41.730;44.788;2022-11-24T15:34:45;60.8;46.4;31
76045;PMS7003;64741;41.730;44.788;2022-11-24T15:39:47;59;46.4;30.4
76045;PMS7003;64741;41.730;44.788;2022-11-24T15:44:49;61;46.2;30.2
76045;PMS7003;64741;41.730;44.788;2022-11-24T15:49:47;58.4;44.2;29
76045;PMS7003;64741;41.730;44.788;2022-11-24T15:54:50;53.6;41.6;27.8
76045;PMS7003;64741;41.730;44.788;2022-11-24T15:59:47;54.4;42.2;27.6
76045;PMS7003;64741;41.730;44.788;2022-11-24T16:04:45;54.4;41;27.2
76045;PMS7003;64741;41.730;44.788;2022-11-24T16:09:45;51;41.6;27
76045;PMS7003;64741;41.730;44.788;2022-11-24T16:14:43;50.2;39;26
76045;PMS7003;64741;41.730;44.788;2022-11-24T16:19:47;46.8;37.8;24.8
76045;PMS7003;64741;41.730;44.788;2022-11-24T16:24:45;46.2;35.8;23.8
76045;PMS7003;64741;41.730;44.788;2022-11-24T16:29:45;45;36;24
76045;PMS7003;64741;41.730;44.788;2022-11-24T16:34:47;43.8;35.2;23.2
76045;PMS7003;64741;41.730;44.788;2022-11-24T16:39:43;41.6;34;23.2
76045;PMS7003;64741;41.730;44.788;2022-11-24T16:44:37;39.2;32.6;22
76045;PMS7003;64741;41.730;44.788;2022-11-24T16:49:45;43;33.6;21.8
76045;PMS7003;64741;41.730;44.788;2022-11-24T16:54:45;38.8;31;21.6
76045;PMS7003;64741;41.730;44.788;2022-11-24T16:59:49;35.4;31;20.8
76045;PMS7003;64741;41.730;44.788;2022-11-24T17:04:47;35.4;29.8;20.4
76045;PMS7003;64741;41.730;44.788;2022-11-24T17:09:49;34.6;29.6;20.2
76045;PMS7003;64741;41.730;44.788;2022-11-24T17:14:43;36.6;30.2;20.4
76045;PMS7003;64741;41.730;44.788;2022-11-24T17:19:45;30.4;28.2;19.2
76045;PMS7003;64741;41.730;44.788;2022-11-24T17:24:49;28.8;26.2;18.2
76045;PMS7003;64741;41.730;44.788;2022-11-24T17:29:45;30.6;25.6;18
76045;PMS7003;64741;41.730;44.788;2022-11-24T17:34:49;29.8;25.6;18.8
76045;PMS7003;64741;41.730;44.788;2022-11-24T17:39:45;29.8;26.2;17.4
76045;PMS7003;64741;41.730;44.788;2022-11-24T17:44:45;28.8;25.6;17.8
76045;PMS7003;64741;41.730;44.788;2022-11-24T17:49:45;29.8;25;17.8
76045;PMS7003;64741;41.730;44.788;2022-11-24T17:54:43;28;22.8;15.8
76045;PMS7003;64741;41.730;44.788;2022-11-24T17:59:45;27.2;22.6;16
76045;PMS7003;64741;41.730;44.788;2022-11-24T18:04:43;28;24.4;17
76045;PMS7003;64741;41.730;44.788;2022-11-24T18:09:45;26.2;23.8;16.4
76045;PMS7003;64741;41.730;44.788;2022-11-24T18:14:35;25.8;23.4;16.8
76045;PMS7003;64741;41.730;44.788;2022-11-24T18:19:43;25;21.4;14.6
76045;PMS7003;64741;41.730;44.788;2022-11-24T18:24:41;26.6;23.6;16.6
76045;PMS7003;64741;41.730;44.788;2022-11-24T18:29:41;25.6;21;15
76045;PMS7003;64741;41.730;44.788;2022-11-24T18:34:43;23.4;19.8;14
76045;PMS7003;64741;41.730;44.788;2022-11-24T18:39:45;24;20.8;14.6
76045;PMS7003;64741;41.730;44.788;2022-11-24T18:44:43;23.8;20.6;14.4
76045;PMS7003;64741;41.730;44.788;2022-11-24T18:49:45;23.8;21.4;15.8
76045;PMS7003;64741;41.730;44.788;2022-11-24T18:54:43;25;21.6;14.4
76045;PMS7003;64741;41.730;44.788;2022-11-24T18:59:41;26;23;16.6
76045;PMS7003;64741;41.730;44.788;2022-11-24T19:04:45;28;23.3;16.8
76045;PMS7003;64741;41.730;44.788;2022-11-24T19:09:43;27;23.4;15.6
76045;PMS7003;64741;41.730;44.788;2022-11-24T19:14:43;27.4;24.6;17.2
76045;PMS7003;64741;41.730;44.788;2022-11-24T19:19:45;33.4;27.8;18.4
76045;PMS7003;64741;41.730;44.788;2022-11-24T19:24:45;29.8;26.6;19
76045;PMS7003;64741;41.730;44.788;2022-11-24T19:29:46;33.8;27;18.4
76045;PMS7003;64741;41.730;44.788;2022-11-24T19:34:45;32.8;27.2;19
76045;PMS7003;64741;41.730;44.788;2022-11-24T19:39:45;33;28.4;18.4
76045;PMS7003;64741;41.730;44.788;2022-11-24T19:44:43;30.2;25.4;18.2
76045;PMS7003;64741;41.730;44.788;2022-11-24T19:49:43;32.2;27.4;19.6
76045;PMS7003;64741;41.730;44.788;2022-11-24T19:54:47;32.6;27.2;18
76045;PMS7003;64741;41.730;44.788;2022-11-24T19:59:45;28.4;25.4;18
76045;PMS7003;64741;41.730;44.788;2022-11-24T20:04:49;31.8;28;18.4
76045;PMS7003;64741;41.730;44.788;2022-11-24T20:09:49;30.4;26;18.2
76045;PMS7003;64741;41.730;44.788;2022-11-24T20:14:47;33.8;28.4;19.2
76045;PMS7003;64741;41.730;44.788;2022-11-24T20:19:49;31.8;28;19
76045;PMS7003;64741;41.730;44.788;2022-11-24T20:24:45;33.6;27.2;18.6
76045;PMS7003;64741;41.730;44.788;2022-11-24T20:29:45;33.8;28;19.6
76045;PMS7003;64741;41.730;44.788;2022-11-24T20:34:43;30.6;27.2;18.6
76045;PMS7003;64741;41.730;44.788;2022-11-24T20:39:47;28.4;25.6;17.8
76045;PMS7003;64741;41.730;44.788;2022-11-24T20:44:47;29.8;25.8;18.4
76045;PMS7003;64741;41.730;44.788;2022-11-24T20:49:45;29.4;25.8;18.2
76045;PMS7003;64741;41.730;44.788;2022-11-24T20:54:45;30.6;26.4;18.2
76045;PMS7003;64741;41.730;44.788;2022-11-24T20:59:45;28;23;17.2
76045;PMS7003;64741;41.730;44.788;2022-11-24T21:04:43;31;26;18.4
76045;PMS7003;64741;41.730;44.788;2022-11-24T21:09:49;28.8;24.4;16.8
76045;PMS7003;64741;41.730;44.788;2022-11-24T21:14:45;26.2;22.6;17
76045;PMS7003;64741;41.730;44.788;2022-11-24T21:19:49;28.6;25.2;16.8
76045;PMS7003;64741;41.730;44.788;2022-11-24T21:24:45;26.8;24.8;17
76045;PMS7003;64741;41.730;44.788;2022-11-24T21:29:45;29.8;25.6;17.6
76045;PMS7003;64741;41.730;44.788;2022-11-24T21:34:47;24.8;22.2;15.8
76045;PMS7003;64741;41.730;44.788;2022-11-24T21:39:47;28.2;24;16.8
76045;PMS7003;64741;41.730;44.788;2022-11-24T21:44:47;25;22.2;16.2
76045;PMS7003;64741;41.730;44.788;2022-11-24T21:49:49;26.2;22.8;17
76045;PMS7003;64741;41.730;44.788;2022-11-24T21:54:43;26.8;24;17
76045;PMS7003;64741;41.730;44.788;2022-11-24T21:59:45;25.2;22;16.6
76045;PMS7003;64741;41.730;44.788;2022-11-24T22:04:43;26.8;23.8;17
76045;PMS7003;64741;41.730;44.788;2022-11-24T22:09:45;29.4;26.2;18.8
76045;PMS7003;64741;41.730;44.788;2022-11-24T22:14:43;28.4;25.2;18
76045;PMS7003;64741;41.730;44.788;2022-11-24T22:19:37;31;26.2;18.6
76045;PMS7003;64741;41.730;44.788;2022-11-24T22:24:43;27.2;23.6;16.8
76045;PMS7003;64741;41.730;44.788;2022-11-24T22:29:39;28;23.4;17.2
76045;PMS7003;64741;41.730;44.788;2022-11-24T22:34:41;32.8;27.2;19.2
76045;PMS7003;64741;41.730;44.788;2022-11-24T22:39:41;29.8;26;18.2
76045;PMS7003;64741;41.730;44.788;2022-11-24T22:44:39;30.2;26.6;17.8
76045;PMS7003;64741;41.730;44.788;2022-11-24T22:49:43;28.4;24.6;17.6
76045;PMS7003;64741;41.730;44.788;2022-11-24T22:54:43;29.6;25;18
76045;PMS7003;64741;41.730;44.788;2022-11-24T22:59:21;28.4;24.2;17.2
76045;PMS7003;64741;41.730;44.788;2022-11-24T23:04:29;26.8;23.4;16.4
76045;PMS7003;64741;41.730;44.788;2022-11-24T23:09:37;28;25.8;17.6
76045;PMS7003;64741;41.730;44.788;2022-11-24T23:14:45;27;24.4;16.2
76045;PMS7003;64741;41.730;44.788;2022-11-24T23:19:41;27.6;22.6;15.6
76045;PMS7003;64741;41.730;44.788;2022-11-24T23:24:41;27.4;23;16.6
76045;PMS7003;64741;41.730;44.788;2022-11-24T23:29:39;27.2;21.6;15.2
76045;PMS7003;64741;41.730;44.788;2022-11-24T23:34:37;26;23.4;16
76045;PMS7003;64741;41.730;44.788;2022-11-24T23:39:43;26.8;22;15.6
76045;PMS7003;64741;41.730;44.788;2022-11-24T23:44:39;27.6;23.6;16.6
76045;PMS7003;64741;41.730;44.788;2022-11-24T23:49:41;28;22.8;15.8
76045;PMS7003;64741;41.730;44.788;2022-11-24T23:54:41;28.2;24.8;16
76045;PMS7003;64741;41.730;44.788;2022-11-24T23:59:39;28.2;22.8;16.4
